Time;durP1;ratioP1;P1;durP2;ratioP2;P2;SDS_P1;SDS_P2;PMS_P1;PMS_P2;Temp;Humidity;BMP_temperature;BMP_pressure;BME280_temperature;BME280_humidity;BME280_pressure;Samples;Min_cycle;Max_cycle;Signal;HPM_P1;HPM_P2
2022/10/06 04:01:02;;;;;;;0.43;0.43;;;13.40;99.90;;;;;;6207231;22;20503;-70
2022/10/06 04:03:29;;;;;;;0.50;0.50;;;13.40;99.90;;;;;;6243514;23;20411;-70
2022/10/06 04:05:57;;;;;;;3.03;1.47;;;13.40;99.90;;;;;;6241373;23;20426;-69
2022/10/06 04:08:23;;;;;;;0.60;0.60;;;13.40;99.90;;;;;;6242799;23;20862;-69
2022/10/06 04:10:50;;;;;;;0.60;0.60;;;13.40;99.90;;;;;;6243863;22;20445;-70
2022/10/06 04:13:18;;;;;;;0.57;0.57;;;13.40;99.90;;;;;;6243819;23;20732;-69
2022/10/06 04:15:46;;;;;;;0.50;0.50;;;13.50;99.90;;;;;;6243407;23;20422;-70
2022/10/06 04:18:15;;;;;;;1.87;0.40;;;13.50;99.90;;;;;;6243151;23;20494;-70
2022/10/06 04:20:42;;;;;;;1.50;0.50;;;13.50;99.90;;;;;;6241292;22;20942;-69
2022/10/06 04:23:09;;;;;;;0.60;0.60;;;13.50;99.90;;;;;;6242945;23;20457;-68
2022/10/06 04:25:36;;;;;;;4.00;0.60;;;13.50;99.90;;;;;;6253794;23;20766;-69
2022/10/06 04:28:03;;;;;;;0.30;0.30;;;13.60;99.90;;;;;;6243474;23;20849;-69
2022/10/06 04:30:29;;;;;;;0.87;0.87;;;13.60;99.90;;;;;;6244043;22;20422;-67
2022/10/06 04:32:56;;;;;;;2.73;0.40;;;13.60;99.90;;;;;;6243955;23;20422;-68
2022/10/06 04:35:26;;;;;;;0.50;0.50;;;13.60;99.90;;;;;;6242728;23;20446;-68
2022/10/06 04:37:53;;;;;;;3.80;0.60;;;13.70;99.90;;;;;;6244051;23;20477;-68
2022/10/06 04:40:20;;;;;;;0.20;0.20;;;13.70;99.90;;;;;;6242137;22;20422;-68
2022/10/06 04:42:46;;;;;;;0.53;0.43;;;13.60;99.90;;;;;;6243750;23;20445;-68
2022/10/06 04:45:13;;;;;;;0.37;0.37;;;13.60;99.90;;;;;;6243771;23;20538;-69
2022/10/06 04:47:40;;;;;;;1.93;0.63;;;13.60;99.90;;;;;;6244111;23;20422;-69
2022/10/06 04:50:07;;;;;;;7.97;0.60;;;13.50;99.90;;;;;;6241984;23;20954;-68
2022/10/06 04:52:36;;;;;;;1.13;0.43;;;13.50;99.90;;;;;;6243631;22;20717;-68
2022/10/06 04:55:03;;;;;;;0.30;0.30;;;13.50;99.90;;;;;;6243392;23;20422;-69
2022/10/06 04:57:30;;;;;;;0.30;0.27;;;13.40;99.90;;;;;;6243627;23;20800;-69
2022/10/06 05:02:41;;;;;;;4.53;2.10;;;13.40;99.90;;;;;;6243404;23;20496;-68
2022/10/06 05:05:08;;;;;;;0.40;0.40;;;13.40;99.90;;;;;;6240155;23;20419;-68
2022/10/06 05:07:36;;;;;;;0.40;0.40;;;13.40;99.90;;;;;;6242213;23;20449;-69
2022/10/06 05:10:03;;;;;;;1.50;1.00;;;13.40;99.90;;;;;;6243186;23;20607;-68
2022/10/06 05:12:30;;;;;;;2.43;0.40;;;13.30;99.90;;;;;;6252952;22;20473;-68
2022/10/06 05:14:56;;;;;;;1.23;0.80;;;13.30;99.90;;;;;;6242619;23;20919;-68
2022/10/06 05:17:23;;;;;;;3.40;0.73;;;13.20;99.90;;;;;;6242818;23;20429;-68
2022/10/06 05:19:50;;;;;;;1.43;0.40;;;13.20;99.90;;;;;;6242061;23;20462;-68
2022/10/06 05:22:17;;;;;;;0.30;0.30;;;13.20;99.90;;;;;;6242961;22;20445;-68
2022/10/06 05:24:45;;;;;;;0.67;0.57;;;13.10;99.90;;;;;;6243054;23;20422;-68
2022/10/06 05:27:12;;;;;;;0.97;0.97;;;13.10;99.90;;;;;;6243112;23;20448;-69
2022/10/06 05:29:38;;;;;;;5.73;0.57;;;13.10;99.90;;;;;;6242936;23;20425;-68
2022/10/06 05:32:05;;;;;;;0.83;0.40;;;13.10;99.90;;;;;;6242701;22;20545;-68
2022/10/06 05:34:32;;;;;;;5.93;0.87;;;13.10;99.90;;;;;;6241141;23;20422;-68
2022/10/06 05:36:58;;;;;;;2.47;0.30;;;13.10;99.90;;;;;;6242525;23;20419;-68
2022/10/06 05:39:25;;;;;;;0.30;0.30;;;13.00;99.90;;;;;;6242913;23;20999;-68
2022/10/06 05:41:53;;;;;;;0.70;0.70;;;13.00;99.90;;;;;;6242974;22;20464;-68
2022/10/06 05:44:20;;;;;;;1.27;0.77;;;13.00;99.90;;;;;;6242076;23;20950;-68
2022/10/06 05:46:46;;;;;;;2.10;0.67;;;13.00;99.90;;;;;;6241503;23;20422;-68
2022/10/06 05:49:13;;;;;;;2.00;0.60;;;13.00;99.90;;;;;;6238767;23;20539;-68
2022/10/06 05:51:40;;;;;;;0.60;0.60;;;13.00;99.90;;;;;;6242096;22;20776;-68
2022/10/06 05:54:06;;;;;;;2.57;0.93;;;13.00;99.90;;;;;;6242498;23;20422;-69
2022/10/06 05:56:35;;;;;;;0.40;0.40;;;13.00;99.90;;;;;;6242822;23;20496;-68
2022/10/06 05:59:04;;;;;;;0.87;0.87;;;13.00;99.90;;;;;;6241967;23;20441;-67
2022/10/06 06:01:33;;;;;;;0.20;0.20;;;13.00;99.90;;;;;;6241885;22;20456;-68
2022/10/06 06:04:02;;;;;;;0.20;0.20;;;13.00;99.90;;;;;;6240700;23;20430;-68
2022/10/06 06:06:30;;;;;;;0.27;0.27;;;13.00;99.90;;;;;;6242904;23;20423;-67
2022/10/06 06:08:58;;;;;;;0.30;0.30;;;13.00;99.90;;;;;;6242959;23;20413;-67
2022/10/06 06:11:26;;;;;;;3.80;0.30;;;13.00;99.90;;;;;;6242815;22;20442;-68
2022/10/06 06:13:55;;;;;;;0.40;0.40;;;12.90;99.90;;;;;;6242415;23;20422;-67
2022/10/06 06:16:22;;;;;;;1.97;1.97;;;12.90;99.90;;;;;;6242649;23;20475;-68
2022/10/06 06:18:49;;;;;;;3.23;0.67;;;13.00;99.90;;;;;;6242176;23;20449;-69
2022/10/06 06:21:16;;;;;;;1.03;1.03;;;12.90;99.90;;;;;;6242068;22;20456;-69
2022/10/06 06:23:45;;;;;;;0.20;0.20;;;13.00;99.90;;;;;;6242361;23;20429;-69
2022/10/06 06:26:14;;;;;;;1.47;0.70;;;13.00;99.90;;;;;;6241981;23;20428;-69
2022/10/06 06:28:42;;;;;;;2.38;1.10;;;13.00;99.90;;;;;;6242812;23;20520;-70
2022/10/06 06:31:11;;;;;;;1.60;0.40;;;13.00;99.90;;;;;;6242082;22;20206;-69
2022/10/06 06:33:40;;;;;;;0.20;0.20;;;13.00;99.90;;;;;;6241867;23;20672;-70
2022/10/06 06:36:13;;;;;;;2.63;0.33;;;13.00;99.90;;;;;;6251023;23;20529;-70
2022/10/06 06:38:40;;;;;;;0.60;0.30;;;13.00;99.90;;;;;;6242466;23;20435;-70
2022/10/06 06:44:29;;;;;;;0.70;0.57;;;13.00;99.90;;;;;;6251473;23;20362;-70
2022/10/06 06:46:58;;;;;;;1.03;1.03;;;13.10;99.90;;;;;;6241966;23;20499;-70
2022/10/06 06:49:26;;;;;;;0.83;0.50;;;13.10;99.90;;;;;;6243288;23;20417;-69
2022/10/06 06:51:53;;;;;;;2.00;0.30;;;13.10;99.90;;;;;;6244707;22;20441;-69
2022/10/06 06:54:20;;;;;;;0.80;0.33;;;13.10;99.90;;;;;;6244106;23;20425;-69
2022/10/06 06:56:47;;;;;;;0.40;0.40;;;13.20;99.90;;;;;;6244773;23;20795;-69
2022/10/06 06:59:15;;;;;;;0.50;0.50;;;13.20;99.90;;;;;;6241468;23;20446;-69
2022/10/06 07:01:45;;;;;;;0.30;0.30;;;13.20;99.90;;;;;;6243758;22;20535;-70
2022/10/06 07:04:14;;;;;;;0.37;0.37;;;13.30;99.90;;;;;;6243529;23;20529;-70
2022/10/06 07:06:55;;;;;;;2.77;0.67;;;13.30;99.90;;;;;;6245491;23;20433;-70
2022/10/06 07:09:22;;;;;;;0.60;0.60;;;13.30;99.90;;;;;;6244489;23;20881;-70
2022/10/06 07:11:49;;;;;;;1.13;0.60;;;13.40;99.90;;;;;;6243817;22;20442;-70
2022/10/06 07:14:17;;;;;;;0.50;0.50;;;13.40;99.90;;;;;;6241734;23;20648;-69
2022/10/06 07:25:10;;;;;;;4.60;1.17;;;13.60;99.90;;;;;;6243737;23;20542;-69
2022/10/06 07:27:41;;;;;;;0.30;0.30;;;13.60;99.90;;;;;;6252410;23;20412;-70
2022/10/06 07:30:09;;;;;;;0.73;0.50;;;13.70;99.90;;;;;;6244063;23;20160;-70
2022/10/06 07:32:37;;;;;;;0.30;0.30;;;13.70;99.90;;;;;;6244071;22;20469;-70
2022/10/06 07:35:05;;;;;;;0.93;0.80;;;13.70;99.90;;;;;;6243440;23;20429;-70
2022/10/06 07:37:35;;;;;;;0.47;0.40;;;13.80;99.90;;;;;;6244247;23;20422;-70
2022/10/06 07:40:03;;;;;;;0.43;0.40;;;13.80;99.90;;;;;;6243292;23;20438;-70
2022/10/06 07:42:30;;;;;;;0.43;0.40;;;13.80;99.90;;;;;;6244427;22;20468;-70
2022/10/06 07:47:41;;;;;;;6.90;0.60;;;13.90;99.90;;;;;;6243991;23;20728;-70
2022/10/06 07:50:08;;;;;;;0.37;0.37;;;13.90;99.90;;;;;;6241591;23;20743;-70
2022/10/06 07:52:38;;;;;;;1.47;0.50;;;14.00;99.90;;;;;;6243665;22;20442;-70
2022/10/06 07:55:05;;;;;;;0.83;0.40;;;14.00;99.90;;;;;;6243382;23;20427;-69
2022/10/06 07:57:34;;;;;;;0.30;0.30;;;14.10;99.90;;;;;;6243335;23;20423;-71
2022/10/06 08:00:01;;;;;;;0.30;0.30;;;14.30;99.90;;;;;;6243019;23;20452;-66
2022/10/06 08:02:27;;;;;;;3.30;0.50;;;14.80;99.90;;;;;;6243015;22;20469;-70
2022/10/06 08:04:54;;;;;;;2.03;0.30;;;14.90;99.90;;;;;;6241079;23;20513;-70
2022/10/06 08:07:21;;;;;;;7.00;1.33;;;14.80;99.90;;;;;;6242374;23;20430;-71
2022/10/06 08:09:49;;;;;;;1.37;0.93;;;14.70;99.90;;;;;;6243719;23;20434;-70
2022/10/06 08:12:36;;;;;;;1.17;0.70;;;14.60;99.90;;;;;;6243236;22;20478;-70
2022/10/06 08:15:05;;;;;;;3.80;0.60;;;14.50;99.90;;;;;;6243788;23;20437;-70
2022/10/06 08:17:32;;;;;;;3.60;0.30;;;14.50;99.90;;;;;;6243797;23;20434;-70
2022/10/06 08:19:59;;;;;;;0.47;0.47;;;14.50;99.90;;;;;;6241904;23;20443;-70
2022/10/06 08:22:28;;;;;;;4.23;0.50;;;14.50;99.90;;;;;;6241825;22;20450;-70
2022/10/06 08:24:57;;;;;;;0.33;0.30;;;14.60;99.90;;;;;;6243088;23;20423;-70
2022/10/06 08:27:24;;;;;;;1.30;0.50;;;14.60;99.90;;;;;;6242976;23;20452;-70
2022/10/06 08:29:51;;;;;;;1.13;0.60;;;14.60;99.90;;;;;;6243419;23;20431;-70
2022/10/06 08:32:19;;;;;;;0.40;0.33;;;14.60;99.90;;;;;;6241995;22;20439;-70
2022/10/06 08:34:46;;;;;;;0.60;0.60;;;14.60;99.90;;;;;;6242208;23;20502;-70
2022/10/06 08:37:13;;;;;;;2.30;0.40;;;14.60;99.90;;;;;;6242543;23;20423;-70
2022/10/06 08:39:40;;;;;;;0.20;0.20;;;14.70;99.90;;;;;;6243192;23;20450;-70
2022/10/06 08:42:13;;;;;;;1.00;0.50;;;14.70;99.90;;;;;;6240567;22;20440;-70
2022/10/06 08:44:44;;;;;;;0.50;0.50;;;14.70;99.90;;;;;;6242327;23;20407;-70
2022/10/06 08:47:16;;;;;;;0.57;0.57;;;14.80;99.90;;;;;;6241754;23;20439;-70
2022/10/06 08:49:45;;;;;;;0.80;0.80;;;14.90;99.90;;;;;;6240874;23;20410;-70
2022/10/06 08:52:22;;;;;;;3.93;0.40;;;14.90;99.90;;;;;;6242056;22;20574;-70
2022/10/06 08:54:58;;;;;;;0.73;0.40;;;14.90;99.90;;;;;;6241586;23;20906;-70
2022/10/06 08:57:34;;;;;;;0.53;0.53;;;15.00;99.90;;;;;;6242356;23;20829;-70
2022/10/06 09:00:02;;;;;;;1.37;0.70;;;15.00;99.90;;;;;;6242533;23;20438;-70
2022/10/06 09:02:31;;;;;;;0.93;0.90;;;15.00;99.90;;;;;;6242040;22;20759;-70
2022/10/06 09:05:02;;;;;;;3.07;1.17;;;15.10;99.90;;;;;;6242106;23;20926;-70
2022/10/06 09:07:39;;;;;;;2.13;0.57;;;15.10;99.90;;;;;;6242734;23;20433;-70
2022/10/06 09:10:26;;;;;;;5.40;0.57;;;15.20;99.90;;;;;;6242914;23;20404;-70
2022/10/06 09:12:57;;;;;;;0.97;0.50;;;15.10;99.90;;;;;;6252450;23;20417;-70
2022/10/06 09:15:32;;;;;;;0.67;0.50;;;15.10;99.90;;;;;;6265425;23;20422;-70
2022/10/06 09:18:09;;;;;;;0.40;0.40;;;15.20;99.90;;;;;;6259102;23;20403;-70
2022/10/06 09:20:41;;;;;;;0.47;0.40;;;15.30;99.90;;;;;;6260343;22;20505;-70
2022/10/06 09:23:15;;;;;;;1.90;0.73;;;15.40;99.90;;;;;;6261460;23;20426;-70
2022/10/06 09:25:41;;;;;;;1.37;0.47;;;15.40;99.90;;;;;;6264226;23;20400;-70
2022/10/06 09:28:14;;;;;;;2.33;1.03;;;15.40;99.90;;;;;;6265641;23;20419;-70
2022/10/06 09:30:42;;;;;;;0.30;0.30;;;15.40;99.90;;;;;;6263428;22;20446;-70
2022/10/06 09:33:19;;;;;;;0.30;0.30;;;15.30;99.90;;;;;;6244442;23;20956;-70
2022/10/06 09:36:05;;;;;;;2.33;0.30;;;15.40;99.90;;;;;;6243015;23;20434;-70
2022/10/06 09:38:47;;;;;;;0.33;0.30;;;15.30;99.90;;;;;;6244391;23;20423;-70
2022/10/06 09:41:15;;;;;;;1.20;0.60;;;15.30;99.90;;;;;;6245265;22;20513;-71
2022/10/06 09:43:53;;;;;;;0.77;0.37;;;15.40;99.90;;;;;;6254142;23;20420;-70
2022/10/06 09:46:21;;;;;;;0.30;0.30;;;15.50;99.90;;;;;;6247130;23;20407;-70
2022/10/06 09:48:48;;;;;;;0.83;0.60;;;15.60;99.90;;;;;;6247865;23;20427;-70
2022/10/06 09:51:17;;;;;;;0.83;0.57;;;15.70;99.90;;;;;;6247816;22;20438;-70
2022/10/06 09:54:02;;;;;;;0.40;0.40;;;15.70;99.90;;;;;;6249427;23;20440;-70
2022/10/06 09:56:29;;;;;;;1.37;0.53;;;15.70;99.90;;;;;;6250548;23;20409;-70
2022/10/06 09:59:00;;;;;;;1.17;0.40;;;15.70;99.90;;;;;;6242700;23;20421;-70
2022/10/06 10:01:29;;;;;;;0.30;0.30;;;15.70;99.90;;;;;;6241891;22;20458;-70
2022/10/06 10:03:59;;;;;;;2.73;0.70;;;15.70;99.90;;;;;;6239729;23;20420;-70
2022/10/06 10:06:27;;;;;;;1.60;0.40;;;15.70;99.90;;;;;;6241828;23;20504;-70
2022/10/06 10:09:29;;;;;;;0.40;0.30;;;15.80;99.90;;;;;;6242584;23;20760;-70
2022/10/06 10:12:29;;;;;;;0.20;0.20;;;15.90;99.90;;;;;;6251639;22;20874;-70
2022/10/06 10:15:00;;;;;;;0.20;0.20;;;15.90;99.90;;;;;;6241145;23;20423;-70
2022/10/06 10:17:38;;;;;;;1.73;0.60;;;16.10;99.90;;;;;;6241429;23;20401;-70
2022/10/06 10:20:19;;;;;;;1.23;0.30;;;16.20;99.90;;;;;;6240749;23;20435;-70
2022/10/06 10:22:48;;;;;;;0.30;0.30;;;16.30;99.90;;;;;;6239088;23;20745;-70
2022/10/06 10:25:35;;;;;;;7.83;0.50;;;16.40;99.90;;;;;;6252003;23;20422;-70
2022/10/06 10:28:09;;;;;;;0.53;0.53;;;16.40;99.90;;;;;;6243096;23;20727;-70
2022/10/06 10:30:48;;;;;;;0.97;0.60;;;16.50;99.90;;;;;;6253710;22;20781;-68
2022/10/06 10:33:21;;;;;;;1.17;0.50;;;16.50;99.90;;;;;;6244148;23;20416;-69
2022/10/06 10:35:55;;;;;;;0.77;0.40;;;16.60;99.90;;;;;;6252857;23;20446;-69
2022/10/06 10:38:25;;;;;;;0.70;0.40;;;16.70;99.90;;;;;;6255535;23;20508;-70
2022/10/06 10:40:59;;;;;;;1.50;0.60;;;16.70;99.90;;;;;;6254285;22;20447;-70
2022/10/06 10:43:33;;;;;;;7.93;0.63;;;16.70;99.90;;;;;;6254454;23;20434;-70
2022/10/06 10:46:08;;;;;;;1.40;0.47;;;16.70;99.90;;;;;;6254466;23;20424;-69
2022/10/06 10:48:43;;;;;;;8.13;0.67;;;16.70;99.90;;;;;;6257489;23;20890;-71
2022/10/06 10:51:14;;;;;;;0.20;0.20;;;16.60;99.90;;;;;;6252781;22;20444;-72
2022/10/06 10:53:48;;;;;;;0.43;0.43;;;16.70;99.90;;;;;;6254744;23;20415;-70
2022/10/06 10:56:20;;;;;;;0.50;0.50;;;16.80;99.90;;;;;;6264934;23;20432;-71
2022/10/06 10:58:52;;;;;;;2.50;0.20;;;16.70;99.90;;;;;;6262600;23;20430;-71
2022/10/06 11:01:29;;;;;;;1.50;0.30;;;16.60;99.90;;;;;;6257399;22;20448;-70
2022/10/06 11:03:58;;;;;;;0.23;0.23;;;16.40;99.90;;;;;;6255967;23;20918;-71
2022/10/06 11:06:39;;;;;;;2.20;0.57;;;16.20;99.90;;;;;;6256642;23;20923;-72
2022/10/06 11:09:12;;;;;;;1.07;0.50;;;16.20;99.90;;;;;;6255729;23;20527;-70
2022/10/06 11:11:53;;;;;;;0.40;0.40;;;16.00;99.90;;;;;;6255796;22;20439;-71
2022/10/06 11:14:32;;;;;;;0.20;0.20;;;16.00;99.90;;;;;;6255985;23;20885;-71
2022/10/06 11:17:06;;;;;;;0.30;0.30;;;15.90;99.90;;;;;;6255850;23;20419;-70
2022/10/06 11:19:44;;;;;;;0.30;0.30;;;15.90;99.90;;;;;;6244598;23;20721;-71
2022/10/06 11:22:19;;;;;;;0.87;0.70;;;15.90;99.90;;;;;;6255422;22;20518;-72
2022/10/06 11:24:56;;;;;;;2.83;0.67;;;15.90;99.90;;;;;;6255156;23;20870;-70
2022/10/06 11:27:34;;;;;;;0.47;0.30;;;16.00;99.90;;;;;;6256350;23;20747;-69
2022/10/06 11:30:06;;;;;;;2.43;0.60;;;16.00;99.90;;;;;;6242103;23;20853;-70
2022/10/06 11:32:45;;;;;;;0.30;0.30;;;16.00;99.90;;;;;;6241227;22;20452;-71
2022/10/06 11:35:22;;;;;;;0.47;0.30;;;15.90;99.90;;;;;;6242452;23;20409;-70
2022/10/06 11:37:54;;;;;;;1.50;0.57;;;15.90;99.90;;;;;;6243821;23;20541;-70
2022/10/06 11:40:38;;;;;;;0.60;0.60;;;16.10;99.90;;;;;;6242782;22;20429;-70
2022/10/06 11:43:12;;;;;;;1.13;0.80;;;16.00;99.90;;;;;;6241584;23;20423;-70
2022/10/06 11:45:47;;;;;;;0.63;0.47;;;16.10;99.90;;;;;;6243297;23;20857;-70
2022/10/06 11:48:23;;;;;;;1.13;0.40;;;16.20;99.90;;;;;;6243137;23;20463;-70
2022/10/06 11:50:54;;;;;;;0.77;0.40;;;16.30;99.90;;;;;;6242401;22;20467;-70
2022/10/06 11:53:38;;;;;;;0.70;0.40;;;16.40;99.90;;;;;;6241359;23;20799;-70
2022/10/06 11:56:36;;;;;;;1.40;0.50;;;16.50;99.90;;;;;;6243979;23;20906;-70
2022/10/06 11:59:27;;;;;;;0.77;0.57;;;16.60;99.90;;;;;;6243413;23;20402;-70
2022/10/06 12:01:59;;;;;;;0.77;0.70;;;16.70;99.90;;;;;;6242931;22;20450;-70
2022/10/06 12:04:27;;;;;;;0.53;0.53;;;16.70;99.90;;;;;;6241617;23;20408;-69
2022/10/06 12:07:04;;;;;;;8.33;0.77;;;16.80;99.90;;;;;;6244258;23;20751;-70
2022/10/06 12:09:46;;;;;;;0.30;0.30;;;16.80;99.90;;;;;;6242984;23;20428;-69
2022/10/06 12:12:45;;;;;;;4.43;0.67;;;16.90;99.90;;;;;;6243543;22;20442;-69
2022/10/06 12:15:20;;;;;;;0.50;0.50;;;17.00;99.90;;;;;;6253186;23;20409;-69
2022/10/06 12:17:53;;;;;;;2.30;0.50;;;17.10;99.90;;;;;;6244076;23;20409;-69
2022/10/06 12:20:29;;;;;;;0.37;0.37;;;17.20;99.90;;;;;;6242808;22;20544;-70
2022/10/06 12:23:02;;;;;;;0.50;0.50;;;17.20;99.90;;;;;;6252078;23;20417;-71
2022/10/06 12:25:34;;;;;;;8.80;0.60;;;17.40;99.90;;;;;;6243645;23;20462;-70
2022/10/06 12:28:08;;;;;;;2.30;0.40;;;17.40;99.90;;;;;;6243255;23;20889;-70
2022/10/06 12:31:06;;;;;;;0.77;0.30;;;17.40;99.90;;;;;;6243482;22;20445;-69
2022/10/06 12:33:37;;;;;;;0.73;0.73;;;17.30;99.90;;;;;;6242580;23;20414;-70
2022/10/06 12:36:17;;;;;;;0.63;0.47;;;17.20;99.90;;;;;;6242403;23;20450;-69
2022/10/06 12:39:00;;;;;;;0.40;0.40;;;17.30;99.90;;;;;;6241363;23;20413;-70
2022/10/06 12:41:54;;;;;;;0.30;0.30;;;17.30;99.90;;;;;;6242862;22;20499;-69
2022/10/06 12:44:23;;;;;;;1.08;0.70;;;17.20;99.90;;;;;;6240906;23;20450;-68
2022/10/06 12:46:51;;;;;;;0.83;0.30;;;17.30;99.90;;;;;;6244111;23;20191;-69
2022/10/06 12:49:35;;;;;;;0.10;0.10;;;17.20;99.90;;;;;;6242740;23;20432;-69
2022/10/06 12:52:30;;;;;;;0.30;0.30;;;17.20;99.90;;;;;;6244002;22;20436;-69
2022/10/06 12:55:15;;;;;;;0.87;0.87;;;17.20;99.90;;;;;;6239281;23;20431;-69
2022/10/06 12:57:46;;;;;;;0.40;0.40;;;17.20;99.90;;;;;;6243211;23;20413;-69
2022/10/06 13:00:30;;;;;;;2.10;0.60;;;17.30;99.90;;;;;;6242488;23;20422;-69
2022/10/06 13:02:57;;;;;;;6.67;1.90;;;17.30;99.90;;;;;;6242640;23;20406;-69
2022/10/06 13:05:24;;;;;;;0.47;0.47;;;17.20;99.90;;;;;;6242175;23;20796;-69
2022/10/06 13:08:00;;;;;;;0.30;0.30;;;17.30;99.90;;;;;;6243052;23;20426;-69
2022/10/06 13:10:29;;;;;;;1.90;0.23;;;17.30;99.90;;;;;;6242814;22;20510;-69
2022/10/06 13:12:57;;;;;;;2.50;0.47;;;17.30;99.90;;;;;;6242863;23;20426;-69
2022/10/06 13:15:27;;;;;;;1.90;0.50;;;17.20;99.90;;;;;;6242381;23;20932;-69
2022/10/06 13:17:57;;;;;;;4.80;1.23;;;17.10;99.90;;;;;;6243432;23;20442;-69
2022/10/06 13:20:36;;;;;;;4.87;0.80;;;17.10;99.90;;;;;;6241830;22;20433;-69
2022/10/06 13:23:21;;;;;;;0.67;0.67;;;17.00;99.90;;;;;;6242388;23;20414;-69
2022/10/06 13:25:49;;;;;;;0.30;0.30;;;17.00;99.90;;;;;;6242781;23;20407;-69
2022/10/06 13:28:22;;;;;;;2.83;0.33;;;17.00;99.90;;;;;;6242769;23;20427;-70
2022/10/06 13:30:57;;;;;;;2.53;0.93;;;16.90;99.90;;;;;;6242769;22;20445;-69
2022/10/06 13:33:26;;;;;;;0.40;0.40;;;17.00;99.90;;;;;;6242425;23;20413;-69
2022/10/06 13:35:54;;;;;;;0.53;0.30;;;17.00;99.90;;;;;;6242696;23;20427;-69
2022/10/06 13:38:22;;;;;;;0.63;0.63;;;17.10;99.90;;;;;;6242609;23;20420;-69
2022/10/06 13:41:15;;;;;;;1.33;0.57;;;17.10;99.90;;;;;;6242522;22;20453;-69
2022/10/06 13:43:46;;;;;;;0.30;0.30;;;17.20;99.90;;;;;;6242646;23;20493;-69
2022/10/06 13:46:17;;;;;;;0.30;0.30;;;17.20;99.90;;;;;;6243331;23;20428;-69
2022/10/06 13:48:47;;;;;;;1.73;1.33;;;17.20;99.90;;;;;;6242190;23;20412;-69
2022/10/06 13:51:17;;;;;;;1.80;0.77;;;17.20;99.90;;;;;;6242001;22;20444;-69
2022/10/06 13:53:47;;;;;;;0.30;0.30;;;17.20;99.90;;;;;;6244610;23;20421;-71
2022/10/06 13:56:37;;;;;;;0.30;0.30;;;17.20;99.90;;;;;;6244710;23;20912;-69
2022/10/06 13:59:36;;;;;;;3.67;0.57;;;17.20;99.90;;;;;;6243484;23;20413;-70
2022/10/06 14:02:23;;;;;;;2.20;0.30;;;17.20;99.90;;;;;;6188182;23;20497;-69
2022/10/06 14:05:21;;;;;;;1.40;0.30;;;17.10;99.90;;;;;;6238711;23;20878;-69
2022/10/06 14:07:49;;;;;;;2.50;0.97;;;17.10;99.90;;;;;;6242222;23;20422;-69
2022/10/06 14:10:18;;;;;;;0.83;0.23;;;17.10;99.90;;;;;;6241198;22;20925;-68
2022/10/06 14:12:45;;;;;;;5.10;0.53;;;17.10;99.90;;;;;;6242169;23;20441;-69
2022/10/06 14:15:18;;;;;;;2.23;0.60;;;17.10;99.90;;;;;;6242665;23;20868;-69
2022/10/06 14:17:45;;;;;;;0.87;0.37;;;17.10;99.90;;;;;;6242381;23;20716;-70
2022/10/06 14:20:36;;;;;;;0.20;0.20;;;17.10;99.90;;;;;;6240902;23;20427;-70
2022/10/06 14:23:41;;;;;;;0.77;0.40;;;17.10;99.90;;;;;;6236994;23;20426;-70
2022/10/06 14:26:10;;;;;;;1.37;0.43;;;17.00;99.90;;;;;;6241988;23;20521;-70
2022/10/06 14:28:37;;;;;;;0.20;0.20;;;17.00;99.90;;;;;;6241987;23;20422;-70
2022/10/06 14:31:04;;;;;;;0.37;0.37;;;17.00;99.90;;;;;;6242043;22;20441;-70
2022/10/06 14:33:31;;;;;;;1.20;0.40;;;17.00;99.90;;;;;;6241703;23;20431;-70
2022/10/06 14:35:57;;;;;;;0.60;0.60;;;17.00;99.90;;;;;;6251942;23;20421;-70
2022/10/06 14:38:24;;;;;;;0.23;0.23;;;17.00;99.90;;;;;;6242174;23;20444;-70
2022/10/06 14:40:51;;;;;;;0.40;0.40;;;17.00;99.90;;;;;;6241774;22;20446;-70
2022/10/06 14:43:19;;;;;;;0.30;0.30;;;17.00;99.90;;;;;;6242131;23;20430;-70
2022/10/06 14:45:45;;;;;;;1.70;0.50;;;16.90;99.90;;;;;;6241889;23;20444;-70
2022/10/06 14:48:14;;;;;;;2.53;0.37;;;17.00;99.90;;;;;;6241945;23;20760;-70
2022/10/06 14:50:42;;;;;;;0.40;0.40;;;16.90;99.90;;;;;;6241444;22;20791;-70
2022/10/06 14:53:12;;;;;;;0.97;0.40;;;16.80;99.90;;;;;;6242247;23;20484;-70
2022/10/06 14:55:39;;;;;;;0.47;0.47;;;16.80;99.90;;;;;;6242039;23;20961;-70
2022/10/06 14:58:05;;;;;;;2.33;0.40;;;16.80;99.90;;;;;;6242266;23;20422;-69
2022/10/06 15:00:34;;;;;;;0.60;0.60;;;16.80;99.90;;;;;;6240886;22;20421;-69
2022/10/06 15:03:00;;;;;;;1.37;0.50;;;16.70;99.90;;;;;;6241766;23;20435;-69
2022/10/06 15:05:27;;;;;;;0.70;0.70;;;16.70;99.90;;;;;;6241509;23;20420;-69
2022/10/06 15:08:08;;;;;;;0.40;0.40;;;16.70;99.90;;;;;;6242696;23;20445;-69
2022/10/06 15:10:36;;;;;;;0.23;0.23;;;16.60;99.90;;;;;;6243842;22;20443;-68
2022/10/06 15:13:05;;;;;;;3.10;0.70;;;16.60;99.90;;;;;;6242832;23;20506;-68
2022/10/06 15:15:32;;;;;;;0.60;0.30;;;16.60;99.90;;;;;;6243641;23;20754;-69
2022/10/06 15:18:01;;;;;;;0.53;0.53;;;16.50;99.90;;;;;;6244313;23;20479;-68
2022/10/06 15:20:28;;;;;;;0.27;0.20;;;16.50;99.90;;;;;;6243211;22;20429;-68
2022/10/06 15:22:55;;;;;;;0.20;0.20;;;16.40;99.90;;;;;;6243891;23;20490;-69
2022/10/06 15:30:50;;;;;;;0.83;0.83;;;16.30;99.90;;;;;;6243786;22;20508;-68
2022/10/06 15:33:18;;;;;;;0.93;0.30;;;16.30;99.90;;;;;;6243474;23;20420;-68
2022/10/06 15:35:59;;;;;;;0.67;0.40;;;16.30;99.90;;;;;;6242711;23;20444;-69
2022/10/06 15:38:26;;;;;;;0.53;0.53;;;16.20;99.90;;;;;;6244166;23;20401;-68
2022/10/06 15:41:03;;;;;;;3.17;0.80;;;16.20;99.90;;;;;;6243495;22;20437;-68
2022/10/06 15:43:53;;;;;;;0.60;0.60;;;16.10;99.90;;;;;;6243575;23;20404;-69
2022/10/06 15:46:19;;;;;;;1.80;0.73;;;16.10;99.90;;;;;;6242225;23;20443;-69
2022/10/06 15:48:47;;;;;;;0.40;0.40;;;16.00;99.90;;;;;;6242655;23;20421;-69
2022/10/06 15:51:14;;;;;;;0.30;0.30;;;15.90;99.90;;;;;;6242828;22;20448;-70
2022/10/06 15:53:44;;;;;;;0.97;0.60;;;15.90;99.90;;;;;;6243489;23;20769;-69
2022/10/06 15:56:10;;;;;;;1.33;0.37;;;15.90;99.90;;;;;;6243947;23;20422;-70
2022/10/06 15:58:37;;;;;;;1.07;0.43;;;15.80;99.90;;;;;;6243251;23;20439;-69
2022/10/06 16:01:04;;;;;;;0.70;0.70;;;15.80;99.90;;;;;;6242393;22;20451;-69
2022/10/06 16:03:36;;;;;;;1.23;0.80;;;15.70;99.90;;;;;;6243001;23;20756;-70
2022/10/06 16:06:07;;;;;;;0.60;0.60;;;15.70;99.90;;;;;;6242444;23;20751;-70
2022/10/06 16:08:34;;;;;;;1.83;0.30;;;15.60;99.90;;;;;;6242534;23;20408;-69
2022/10/06 16:11:01;;;;;;;0.20;0.20;;;15.60;99.90;;;;;;6243732;22;20770;-70
2022/10/06 16:13:28;;;;;;;0.30;0.20;;;15.50;99.90;;;;;;6241728;23;20427;-70
2022/10/06 16:15:56;;;;;;;0.50;0.33;;;15.50;99.90;;;;;;6243687;23;20530;-70
2022/10/06 16:18:23;;;;;;;0.60;0.60;;;15.40;99.90;;;;;;6242389;23;20514;-70
2022/10/06 16:20:53;;;;;;;2.60;0.70;;;15.30;99.90;;;;;;6242272;22;20440;-70
2022/10/06 16:23:22;;;;;;;1.80;0.70;;;15.30;99.90;;;;;;6243569;23;20466;-70
2022/10/06 16:25:49;;;;;;;0.40;0.40;;;15.20;99.90;;;;;;6243051;23;20445;-70
2022/10/06 16:28:16;;;;;;;0.53;0.30;;;15.10;99.90;;;;;;6242648;23;20951;-70
2022/10/06 16:30:42;;;;;;;0.30;0.23;;;15.20;99.90;;;;;;6243396;22;20449;-70
2022/10/06 16:33:09;;;;;;;0.37;0.37;;;15.10;99.90;;;;;;6242903;23;20424;-70
2022/10/06 16:35:36;;;;;;;0.50;0.50;;;15.00;99.90;;;;;;6240294;23;20430;-70
2022/10/06 16:38:02;;;;;;;8.83;0.70;;;14.90;99.90;;;;;;6241879;23;20435;-70
2022/10/06 16:40:30;;;;;;;0.47;0.47;;;14.80;99.90;;;;;;6242470;22;20423;-71
2022/10/06 16:42:57;;;;;;;0.30;0.30;;;14.70;99.90;;;;;;6242944;23;20450;-71
2022/10/06 16:45:24;;;;;;;0.60;0.60;;;14.70;99.90;;;;;;6244089;23;20424;-70
2022/10/06 16:47:50;;;;;;;0.33;0.33;;;14.60;99.90;;;;;;6244655;23;20493;-70
2022/10/06 16:50:17;;;;;;;1.47;0.60;;;14.50;99.90;;;;;;6242322;22;20476;-70
2022/10/06 16:52:44;;;;;;;1.13;0.53;;;14.40;99.90;;;;;;6244279;23;20951;-70
2022/10/06 16:55:11;;;;;;;0.20;0.20;;;14.30;99.90;;;;;;6242093;23;20446;-70
2022/10/06 16:57:39;;;;;;;0.50;0.50;;;14.20;99.90;;;;;;6242810;22;20799;-68
2022/10/06 17:00:06;;;;;;;0.43;0.43;;;14.10;99.90;;;;;;6242838;23;20423;-69
2022/10/06 17:02:33;;;;;;;0.87;0.87;;;14.00;99.90;;;;;;6242867;23;20951;-70
2022/10/06 17:05:00;;;;;;;0.40;0.40;;;13.90;99.90;;;;;;6241051;23;20423;-69
2022/10/06 17:07:27;;;;;;;1.90;0.77;;;13.90;99.90;;;;;;6241582;22;20492;-69
2022/10/06 17:09:54;;;;;;;0.40;0.40;;;13.90;99.90;;;;;;6242812;23;20430;-69
2022/10/06 17:12:20;;;;;;;1.37;0.50;;;13.80;99.90;;;;;;6242148;23;20426;-69
2022/10/06 17:14:48;;;;;;;0.70;0.70;;;13.80;99.90;;;;;;6241960;23;20423;-69
2022/10/06 17:17:15;;;;;;;0.70;0.70;;;13.70;99.90;;;;;;6241924;22;20449;-69
2022/10/06 17:19:42;;;;;;;1.37;1.27;;;13.70;99.90;;;;;;6241960;23;20430;-69
2022/10/06 17:22:08;;;;;;;1.43;1.40;;;13.60;99.90;;;;;;6243225;23;20450;-70
2022/10/06 17:24:35;;;;;;;2.43;1.20;;;13.50;99.90;;;;;;6242785;23;20647;-68
2022/10/06 17:27:03;;;;;;;1.63;1.50;;;13.40;99.90;;;;;;6243333;22;20445;-69
2022/10/06 17:29:29;;;;;;;0.57;0.57;;;13.40;99.90;;;;;;6241353;23;20429;-69
2022/10/06 17:31:58;;;;;;;1.07;0.83;;;13.30;99.90;;;;;;6242066;23;20517;-69